sensor_id;sensor_type;location;lat;lon;timestamp;P1;durP1;ratioP1;P2;durP2;ratioP2
78718;SDS011;68046;53.334;9.538;2023-05-14T00:01:34;5.68;;;3.58;;
78718;SDS011;68046;53.334;9.538;2023-05-14T00:04:07;7.45;;;3.92;;
78718;SDS011;68046;53.334;9.538;2023-05-14T00:06:37;6.15;;;3.83;;
78718;SDS011;68046;53.334;9.538;2023-05-14T00:09:07;5.90;;;4.00;;
78718;SDS011;68046;53.334;9.538;2023-05-14T00:11:37;5.25;;;3.55;;
78718;SDS011;68046;53.334;9.538;2023-05-14T00:14:07;5.35;;;3.72;;
78718;SDS011;68046;53.334;9.538;2023-05-14T00:16:37;6.55;;;3.72;;
78718;SDS011;68046;53.334;9.538;2023-05-14T00:19:09;7.40;;;4.00;;
78718;SDS011;68046;53.334;9.538;2023-05-14T00:21:40;5.43;;;3.80;;
78718;SDS011;68046;53.334;9.538;2023-05-14T00:24:10;4.93;;;3.75;;
78718;SDS011;68046;53.334;9.538;2023-05-14T00:26:40;4.93;;;3.72;;
78718;SDS011;68046;53.334;9.538;2023-05-14T00:29:10;5.95;;;3.70;;
78718;SDS011;68046;53.334;9.538;2023-05-14T00:31:40;5.07;;;3.58;;
78718;SDS011;68046;53.334;9.538;2023-05-14T00:34:12;6.93;;;4.10;;
78718;SDS011;68046;53.334;9.538;2023-05-14T00:36:42;4.45;;;3.55;;
78718;SDS011;68046;53.334;9.538;2023-05-14T00:39:34;5.00;;;3.63;;
78718;SDS011;68046;53.334;9.538;2023-05-14T00:42:07;5.88;;;3.65;;
78718;SDS011;68046;53.334;9.538;2023-05-14T00:44:41;4.93;;;3.40;;
78718;SDS011;68046;53.334;9.538;2023-05-14T00:47:17;5.88;;;3.65;;
78718;SDS011;68046;53.334;9.538;2023-05-14T00:50:04;5.40;;;3.63;;
78718;SDS011;68046;53.334;9.538;2023-05-14T00:52:35;4.63;;;3.42;;
78718;SDS011;68046;53.334;9.538;2023-05-14T00:55:17;6.20;;;3.80;;
78718;SDS011;68046;53.334;9.538;2023-05-14T00:57:48;5.20;;;3.75;;
78718;SDS011;68046;53.334;9.538;2023-05-14T01:00:19;4.82;;;4.05;;
78718;SDS011;68046;53.334;9.538;2023-05-14T01:02:49;4.28;;;3.63;;
78718;SDS011;68046;53.334;9.538;2023-05-14T01:05:22;7.13;;;4.20;;
78718;SDS011;68046;53.334;9.538;2023-05-14T01:07:56;8.63;;;4.07;;
78718;SDS011;68046;53.334;9.538;2023-05-14T01:10:34;6.85;;;3.97;;
78718;SDS011;68046;53.334;9.538;2023-05-14T01:13:09;6.00;;;3.97;;
78718;SDS011;68046;53.334;9.538;2023-05-14T01:15:42;6.20;;;4.32;;
78718;SDS011;68046;53.334;9.538;2023-05-14T01:20:51;9.80;;;4.20;;
78718;SDS011;68046;53.334;9.538;2023-05-14T01:23:29;4.90;;;4.03;;
78718;SDS011;68046;53.334;9.538;2023-05-14T01:25:59;5.13;;;4.07;;
78718;SDS011;68046;53.334;9.538;2023-05-14T01:41:57;6.93;;;3.97;;
78718;SDS011;68046;53.334;9.538;2023-05-14T01:45:18;6.53;;;4.30;;
78718;SDS011;68046;53.334;9.538;2023-05-14T01:47:51;7.68;;;4.40;;
78718;SDS011;68046;53.334;9.538;2023-05-14T01:50:22;6.93;;;4.25;;
78718;SDS011;68046;53.334;9.538;2023-05-14T01:52:52;8.48;;;3.80;;
78718;SDS011;68046;53.334;9.538;2023-05-14T01:55:31;7.97;;;4.30;;
78718;SDS011;68046;53.334;9.538;2023-05-14T01:58:04;5.32;;;3.65;;
78718;SDS011;68046;53.334;9.538;2023-05-14T02:00:38;6.78;;;3.80;;
78718;SDS011;68046;53.334;9.538;2023-05-14T02:03:16;7.65;;;3.78;;
78718;SDS011;68046;53.334;9.538;2023-05-14T02:05:46;5.80;;;4.20;;
78718;SDS011;68046;53.334;9.538;2023-05-14T02:08:43;8.02;;;4.70;;
78718;SDS011;68046;53.334;9.538;2023-05-14T02:20:47;5.80;;;4.18;;
78718;SDS011;68046;53.334;9.538;2023-05-14T02:23:17;6.65;;;4.03;;
78718;SDS011;68046;53.334;9.538;2023-05-14T02:26:03;5.40;;;3.95;;
78718;SDS011;68046;53.334;9.538;2023-05-14T02:28:35;5.47;;;4.13;;
78718;SDS011;68046;53.334;9.538;2023-05-14T02:31:05;5.93;;;4.10;;
78718;SDS011;68046;53.334;9.538;2023-05-14T02:33:35;5.88;;;4.45;;
78718;SDS011;68046;53.334;9.538;2023-05-14T02:36:07;5.53;;;4.22;;
78718;SDS011;68046;53.334;9.538;2023-05-14T02:38:37;7.25;;;4.82;;
78718;SDS011;68046;53.334;9.538;2023-05-14T02:41:07;6.07;;;4.53;;
78718;SDS011;68046;53.334;9.538;2023-05-14T02:43:37;5.45;;;4.75;;
78718;SDS011;68046;53.334;9.538;2023-05-14T02:46:07;6.65;;;3.92;;
78718;SDS011;68046;53.334;9.538;2023-05-14T02:48:37;8.77;;;4.70;;
78718;SDS011;68046;53.334;9.538;2023-05-14T02:51:09;10.02;;;4.43;;
78718;SDS011;68046;53.334;9.538;2023-05-14T02:53:41;5.95;;;4.00;;
78718;SDS011;68046;53.334;9.538;2023-05-14T02:56:11;8.15;;;4.53;;
78718;SDS011;68046;53.334;9.538;2023-05-14T02:58:42;5.55;;;3.90;;
78718;SDS011;68046;53.334;9.538;2023-05-14T03:01:12;4.70;;;3.92;;
78718;SDS011;68046;53.334;9.538;2023-05-14T03:03:44;5.18;;;4.05;;
78718;SDS011;68046;53.334;9.538;2023-05-14T03:06:18;5.30;;;4.20;;
78718;SDS011;68046;53.334;9.538;2023-05-14T03:08:48;6.80;;;4.15;;
78718;SDS011;68046;53.334;9.538;2023-05-14T03:11:17;5.05;;;4.20;;
78718;SDS011;68046;53.334;9.538;2023-05-14T03:13:47;7.30;;;4.20;;
78718;SDS011;68046;53.334;9.538;2023-05-14T03:16:17;5.47;;;4.15;;
78718;SDS011;68046;53.334;9.538;2023-05-14T03:18:48;7.07;;;4.47;;
78718;SDS011;68046;53.334;9.538;2023-05-14T03:21:21;5.93;;;4.18;;
78718;SDS011;68046;53.334;9.538;2023-05-14T03:23:51;6.53;;;5.15;;
78718;SDS011;68046;53.334;9.538;2023-05-14T03:26:21;5.70;;;4.60;;
78718;SDS011;68046;53.334;9.538;2023-05-14T03:28:51;5.47;;;4.68;;
78718;SDS011;68046;53.334;9.538;2023-05-14T03:31:21;7.43;;;4.68;;
78718;SDS011;68046;53.334;9.538;2023-05-14T03:33:55;5.40;;;4.15;;
78718;SDS011;68046;53.334;9.538;2023-05-14T03:36:27;8.55;;;4.45;;
78718;SDS011;68046;53.334;9.538;2023-05-14T03:38:58;5.75;;;4.60;;
78718;SDS011;68046;53.334;9.538;2023-05-14T03:41:28;7.45;;;4.97;;
78718;SDS011;68046;53.334;9.538;2023-05-14T03:43:58;6.45;;;4.40;;
78718;SDS011;68046;53.334;9.538;2023-05-14T03:46:28;5.72;;;4.60;;
78718;SDS011;68046;53.334;9.538;2023-05-14T03:48:58;7.00;;;4.47;;
78718;SDS011;68046;53.334;9.538;2023-05-14T03:51:31;7.28;;;4.35;;
78718;SDS011;68046;53.334;9.538;2023-05-14T03:54:03;5.72;;;4.47;;
78718;SDS011;68046;53.334;9.538;2023-05-14T03:56:33;6.15;;;4.80;;
78718;SDS011;68046;53.334;9.538;2023-05-14T03:59:03;5.32;;;4.30;;
78718;SDS011;68046;53.334;9.538;2023-05-14T04:01:33;4.93;;;4.05;;
78718;SDS011;68046;53.334;9.538;2023-05-14T04:04:03;5.88;;;4.63;;
78718;SDS011;68046;53.334;9.538;2023-05-14T04:06:36;5.43;;;4.20;;
78718;SDS011;68046;53.334;9.538;2023-05-14T04:09:06;5.85;;;4.00;;
78718;SDS011;68046;53.334;9.538;2023-05-14T04:11:36;5.45;;;4.03;;
78718;SDS011;68046;53.334;9.538;2023-05-14T04:14:06;6.07;;;4.32;;
78718;SDS011;68046;53.334;9.538;2023-05-14T04:16:36;6.75;;;3.67;;
78718;SDS011;68046;53.334;9.538;2023-05-14T04:19:06;7.43;;;4.20;;
78718;SDS011;68046;53.334;9.538;2023-05-14T04:21:39;7.32;;;4.57;;
78718;SDS011;68046;53.334;9.538;2023-05-14T04:24:09;6.95;;;4.38;;
78718;SDS011;68046;53.334;9.538;2023-05-14T04:26:38;6.47;;;5.03;;
78718;SDS011;68046;53.334;9.538;2023-05-14T04:29:08;5.80;;;4.50;;
78718;SDS011;68046;53.334;9.538;2023-05-14T04:31:38;6.47;;;4.32;;
78718;SDS011;68046;53.334;9.538;2023-05-14T04:34:08;8.88;;;4.72;;
78718;SDS011;68046;53.334;9.538;2023-05-14T04:36:41;6.53;;;4.72;;
78718;SDS011;68046;53.334;9.538;2023-05-14T04:39:11;5.82;;;4.68;;
78718;SDS011;68046;53.334;9.538;2023-05-14T04:41:41;5.53;;;4.22;;
78718;SDS011;68046;53.334;9.538;2023-05-14T04:44:11;4.90;;;4.22;;
78718;SDS011;68046;53.334;9.538;2023-05-14T04:46:41;6.15;;;4.55;;
78718;SDS011;68046;53.334;9.538;2023-05-14T04:49:11;8.27;;;4.45;;
78718;SDS011;68046;53.334;9.538;2023-05-14T04:51:43;6.30;;;5.00;;
78718;SDS011;68046;53.334;9.538;2023-05-14T04:54:13;5.60;;;4.40;;
78718;SDS011;68046;53.334;9.538;2023-05-14T04:56:43;6.95;;;4.70;;
78718;SDS011;68046;53.334;9.538;2023-05-14T04:59:13;5.45;;;4.35;;
78718;SDS011;68046;53.334;9.538;2023-05-14T05:01:43;5.57;;;4.30;;
78718;SDS011;68046;53.334;9.538;2023-05-14T05:04:13;5.85;;;4.32;;
78718;SDS011;68046;53.334;9.538;2023-05-14T05:06:46;6.07;;;4.15;;
78718;SDS011;68046;53.334;9.538;2023-05-14T05:09:16;5.78;;;4.13;;
78718;SDS011;68046;53.334;9.538;2023-05-14T05:11:46;5.93;;;4.15;;
78718;SDS011;68046;53.334;9.538;2023-05-14T05:14:16;7.20;;;4.18;;
78718;SDS011;68046;53.334;9.538;2023-05-14T05:16:46;6.28;;;4.63;;
78718;SDS011;68046;53.334;9.538;2023-05-14T05:19:16;6.95;;;4.13;;
78718;SDS011;68046;53.334;9.538;2023-05-14T05:22:00;4.80;;;3.78;;
78718;SDS011;68046;53.334;9.538;2023-05-14T05:24:30;5.60;;;3.78;;
78718;SDS011;68046;53.334;9.538;2023-05-14T05:27:00;4.57;;;3.70;;
78718;SDS011;68046;53.334;9.538;2023-05-14T05:32:00;5.43;;;4.15;;
78718;SDS011;68046;53.334;9.538;2023-05-14T05:34:30;6.25;;;3.85;;
78718;SDS011;68046;53.334;9.538;2023-05-14T05:37:03;5.75;;;3.67;;
78718;SDS011;68046;53.334;9.538;2023-05-14T05:39:34;5.57;;;4.05;;
78718;SDS011;68046;53.334;9.538;2023-05-14T05:42:05;6.55;;;3.60;;
78718;SDS011;68046;53.334;9.538;2023-05-14T05:44:36;4.45;;;3.50;;
78718;SDS011;68046;53.334;9.538;2023-05-14T05:47:05;4.63;;;3.67;;
78718;SDS011;68046;53.334;9.538;2023-05-14T05:49:35;5.07;;;3.50;;
78718;SDS011;68046;53.334;9.538;2023-05-14T05:52:08;4.82;;;3.70;;
78718;SDS011;68046;53.334;9.538;2023-05-14T05:54:38;5.18;;;3.80;;
78718;SDS011;68046;53.334;9.538;2023-05-14T05:57:08;4.38;;;3.45;;
78718;SDS011;68046;53.334;9.538;2023-05-14T05:59:38;5.60;;;3.65;;
78718;SDS011;68046;53.334;9.538;2023-05-14T06:02:08;6.25;;;3.65;;
78718;SDS011;68046;53.334;9.538;2023-05-14T06:04:38;5.25;;;3.78;;
78718;SDS011;68046;53.334;9.538;2023-05-14T06:07:10;4.95;;;3.40;;
78718;SDS011;68046;53.334;9.538;2023-05-14T06:09:40;4.57;;;3.33;;
78718;SDS011;68046;53.334;9.538;2023-05-14T06:12:10;4.90;;;3.30;;
78718;SDS011;68046;53.334;9.538;2023-05-14T06:14:39;4.70;;;3.42;;
78718;SDS011;68046;53.334;9.538;2023-05-14T06:17:09;4.97;;;3.50;;
78718;SDS011;68046;53.334;9.538;2023-05-14T06:19:39;4.60;;;3.42;;
78718;SDS011;68046;53.334;9.538;2023-05-14T06:22:12;5.30;;;3.53;;
78718;SDS011;68046;53.334;9.538;2023-05-14T06:24:42;4.38;;;3.45;;
78718;SDS011;68046;53.334;9.538;2023-05-14T06:27:11;5.25;;;3.50;;
78718;SDS011;68046;53.334;9.538;2023-05-14T06:29:41;5.85;;;3.33;;
78718;SDS011;68046;53.334;9.538;2023-05-14T06:32:26;5.78;;;3.65;;
78718;SDS011;68046;53.334;9.538;2023-05-14T06:34:56;3.88;;;3.03;;
78718;SDS011;68046;53.334;9.538;2023-05-14T06:37:29;4.57;;;3.70;;
78718;SDS011;68046;53.334;9.538;2023-05-14T06:39:59;4.43;;;3.30;;
78718;SDS011;68046;53.334;9.538;2023-05-14T06:42:30;4.35;;;3.38;;
78718;SDS011;68046;53.334;9.538;2023-05-14T06:45:03;4.32;;;3.45;;
78718;SDS011;68046;53.334;9.538;2023-05-14T06:47:34;5.20;;;2.92;;
78718;SDS011;68046;53.334;9.538;2023-05-14T06:50:04;3.75;;;3.08;;
78718;SDS011;68046;53.334;9.538;2023-05-14T06:52:39;4.15;;;2.85;;
78718;SDS011;68046;53.334;9.538;2023-05-14T06:55:09;5.90;;;3.03;;
78718;SDS011;68046;53.334;9.538;2023-05-14T06:57:39;3.78;;;2.95;;
78718;SDS011;68046;53.334;9.538;2023-05-14T07:00:10;5.18;;;3.08;;
78718;SDS011;68046;53.334;9.538;2023-05-14T07:02:41;3.63;;;2.90;;
78718;SDS011;68046;53.334;9.538;2023-05-14T07:05:11;3.17;;;2.75;;
78718;SDS011;68046;53.334;9.538;2023-05-14T07:07:44;4.50;;;3.10;;
78718;SDS011;68046;53.334;9.538;2023-05-14T07:10:14;5.32;;;2.88;;
78718;SDS011;68046;53.334;9.538;2023-05-14T07:12:44;6.47;;;3.13;;
78718;SDS011;68046;53.334;9.538;2023-05-14T07:15:14;4.50;;;2.72;;
78718;SDS011;68046;53.334;9.538;2023-05-14T07:17:45;5.55;;;3.13;;
78718;SDS011;68046;53.334;9.538;2023-05-14T07:20:15;3.15;;;2.58;;
78718;SDS011;68046;53.334;9.538;2023-05-14T07:22:47;3.30;;;2.50;;
78718;SDS011;68046;53.334;9.538;2023-05-14T07:25:17;3.22;;;2.75;;
78718;SDS011;68046;53.334;9.538;2023-05-14T07:27:47;3.35;;;2.65;;
78718;SDS011;68046;53.334;9.538;2023-05-14T07:30:18;4.93;;;2.67;;
78718;SDS011;68046;53.334;9.538;2023-05-14T07:32:48;6.90;;;2.65;;
78718;SDS011;68046;53.334;9.538;2023-05-14T07:35:19;4.95;;;3.15;;
78718;SDS011;68046;53.334;9.538;2023-05-14T07:37:52;5.18;;;3.10;;
78718;SDS011;68046;53.334;9.538;2023-05-14T07:40:22;3.55;;;2.95;;
78718;SDS011;68046;53.334;9.538;2023-05-14T07:42:53;4.72;;;2.80;;
78718;SDS011;68046;53.334;9.538;2023-05-14T07:45:23;5.40;;;2.78;;
78718;SDS011;68046;53.334;9.538;2023-05-14T07:47:53;3.80;;;2.70;;
78718;SDS011;68046;53.334;9.538;2023-05-14T07:52:56;5.00;;;2.83;;
78718;SDS011;68046;53.334;9.538;2023-05-14T07:55:26;3.63;;;2.55;;
78718;SDS011;68046;53.334;9.538;2023-05-14T08:00:26;3.95;;;2.75;;
78718;SDS011;68046;53.334;9.538;2023-05-14T08:02:57;5.80;;;2.60;;
78718;SDS011;68046;53.334;9.538;2023-05-14T08:05:27;4.93;;;3.28;;
78718;SDS011;68046;53.334;9.538;2023-05-14T08:08:01;4.75;;;2.88;;
78718;SDS011;68046;53.334;9.538;2023-05-14T08:10:31;5.82;;;2.70;;
78718;SDS011;68046;53.334;9.538;2023-05-14T08:13:01;4.63;;;2.97;;
78718;SDS011;68046;53.334;9.538;2023-05-14T08:15:32;3.80;;;2.75;;
78718;SDS011;68046;53.334;9.538;2023-05-14T08:18:02;5.07;;;2.70;;
78718;SDS011;68046;53.334;9.538;2023-05-14T08:23:05;6.97;;;3.05;;
78718;SDS011;68046;53.334;9.538;2023-05-14T08:25:35;4.43;;;2.95;;
78718;SDS011;68046;53.334;9.538;2023-05-14T08:28:05;4.32;;;3.00;;
78718;SDS011;68046;53.334;9.538;2023-05-14T08:30:36;5.45;;;2.88;;
78718;SDS011;68046;53.334;9.538;2023-05-14T08:33:06;6.97;;;3.13;;
78718;SDS011;68046;53.334;9.538;2023-05-14T08:35:36;5.45;;;2.85;;
78718;SDS011;68046;53.334;9.538;2023-05-14T08:38:09;3.70;;;2.65;;
78718;SDS011;68046;53.334;9.538;2023-05-14T08:40:39;4.63;;;3.03;;
78718;SDS011;68046;53.334;9.538;2023-05-14T08:43:10;6.35;;;2.85;;
78718;SDS011;68046;53.334;9.538;2023-05-14T08:48:10;3.53;;;2.60;;
78718;SDS011;68046;53.334;9.538;2023-05-14T08:50:44;4.10;;;2.97;;
78718;SDS011;68046;53.334;9.538;2023-05-14T08:53:17;3.72;;;2.90;;
78718;SDS011;68046;53.334;9.538;2023-05-14T08:55:48;7.70;;;3.25;;
78718;SDS011;68046;53.334;9.538;2023-05-14T08:58:19;6.35;;;2.88;;
78718;SDS011;68046;53.334;9.538;2023-05-14T09:00:52;5.20;;;3.35;;
78718;SDS011;68046;53.334;9.538;2023-05-14T09:03:22;4.72;;;3.25;;
78718;SDS011;68046;53.334;9.538;2023-05-14T09:05:52;3.92;;;3.05;;
78718;SDS011;68046;53.334;9.538;2023-05-14T09:08:28;5.10;;;3.22;;
78718;SDS011;68046;53.334;9.538;2023-05-14T09:10:59;6.35;;;3.22;;
78718;SDS011;68046;53.334;9.538;2023-05-14T09:13:29;3.78;;;2.75;;
78718;SDS011;68046;53.334;9.538;2023-05-14T09:15:59;7.35;;;3.05;;
78718;SDS011;68046;53.334;9.538;2023-05-14T09:18:30;3.65;;;2.72;;
78718;SDS011;68046;53.334;9.538;2023-05-14T09:21:00;5.22;;;2.90;;
78718;SDS011;68046;53.334;9.538;2023-05-14T09:26:03;4.35;;;2.97;;
78718;SDS011;68046;53.334;9.538;2023-05-14T09:28:34;5.43;;;2.92;;
78718;SDS011;68046;53.334;9.538;2023-05-14T09:31:04;4.97;;;3.15;;
78718;SDS011;68046;53.334;9.538;2023-05-14T09:33:34;5.03;;;2.88;;
78718;SDS011;68046;53.334;9.538;2023-05-14T09:36:04;4.18;;;2.95;;
78718;SDS011;68046;53.334;9.538;2023-05-14T09:38:38;4.65;;;2.90;;
78718;SDS011;68046;53.334;9.538;2023-05-14T09:41:08;3.85;;;2.90;;
78718;SDS011;68046;53.334;9.538;2023-05-14T09:43:38;5.10;;;2.70;;
78718;SDS011;68046;53.334;9.538;2023-05-14T09:46:08;6.30;;;3.10;;
78718;SDS011;68046;53.334;9.538;2023-05-14T09:51:09;7.45;;;3.10;;
78718;SDS011;68046;53.334;9.538;2023-05-14T09:53:43;4.80;;;3.22;;
78718;SDS011;68046;53.334;9.538;2023-05-14T09:56:13;3.45;;;2.70;;
78718;SDS011;68046;53.334;9.538;2023-05-14T09:58:44;5.47;;;3.22;;
78718;SDS011;68046;53.334;9.538;2023-05-14T10:01:15;5.00;;;2.95;;
78718;SDS011;68046;53.334;9.538;2023-05-14T10:03:47;9.02;;;2.92;;
78718;SDS011;68046;53.334;9.538;2023-05-14T10:06:18;3.80;;;2.83;;
78718;SDS011;68046;53.334;9.538;2023-05-14T10:08:55;6.75;;;3.53;;
78718;SDS011;68046;53.334;9.538;2023-05-14T10:11:27;4.47;;;3.38;;
78718;SDS011;68046;53.334;9.538;2023-05-14T10:14:01;4.35;;;2.92;;
78718;SDS011;68046;53.334;9.538;2023-05-14T10:16:34;5.10;;;3.20;;
78718;SDS011;68046;53.334;9.538;2023-05-14T10:19:07;3.35;;;2.60;;
78718;SDS011;68046;53.334;9.538;2023-05-14T10:21:39;9.75;;;3.20;;
78718;SDS011;68046;53.334;9.538;2023-05-14T10:24:12;5.40;;;3.10;;
78718;SDS011;68046;53.334;9.538;2023-05-14T10:26:43;7.32;;;3.08;;
78718;SDS011;68046;53.334;9.538;2023-05-14T10:29:14;5.65;;;3.22;;
78718;SDS011;68046;53.334;9.538;2023-05-14T10:31:47;5.70;;;3.20;;
78718;SDS011;68046;53.334;9.538;2023-05-14T10:34:32;3.88;;;2.95;;
78718;SDS011;68046;53.334;9.538;2023-05-14T10:37:03;5.43;;;2.90;;
78718;SDS011;68046;53.334;9.538;2023-05-14T10:42:26;4.65;;;3.50;;
78718;SDS011;68046;53.334;9.538;2023-05-14T10:44:58;4.55;;;3.10;;
78718;SDS011;68046;53.334;9.538;2023-05-14T10:47:32;5.82;;;2.67;;
78718;SDS011;68046;53.334;9.538;2023-05-14T10:50:03;3.80;;;2.83;;
78718;SDS011;68046;53.334;9.538;2023-05-14T10:52:35;5.32;;;3.08;;
78718;SDS011;68046;53.334;9.538;2023-05-14T10:57:41;5.18;;;3.50;;
78718;SDS011;68046;53.334;9.538;2023-05-14T11:00:12;6.40;;;2.97;;
78718;SDS011;68046;53.334;9.538;2023-05-14T11:02:43;6.15;;;3.20;;
78718;SDS011;68046;53.334;9.538;2023-05-14T11:07:44;5.50;;;3.00;;
78718;SDS011;68046;53.334;9.538;2023-05-14T11:10:18;6.78;;;3.30;;
78718;SDS011;68046;53.334;9.538;2023-05-14T11:12:51;4.13;;;3.40;;
78718;SDS011;68046;53.334;9.538;2023-05-14T11:15:22;6.07;;;3.10;;
78718;SDS011;68046;53.334;9.538;2023-05-14T11:17:54;4.00;;;3.10;;
78718;SDS011;68046;53.334;9.538;2023-05-14T11:20:24;8.25;;;2.95;;
78718;SDS011;68046;53.334;9.538;2023-05-14T11:22:54;6.28;;;3.35;;
78718;SDS011;68046;53.334;9.538;2023-05-14T11:25:27;3.55;;;2.92;;
78718;SDS011;68046;53.334;9.538;2023-05-14T11:27:57;7.55;;;2.80;;
78718;SDS011;68046;53.334;9.538;2023-05-14T11:30:27;5.85;;;3.08;;
78718;SDS011;68046;53.334;9.538;2023-05-14T11:32:59;4.22;;;3.25;;
78718;SDS011;68046;53.334;9.538;2023-05-14T11:35:30;5.57;;;2.90;;
78718;SDS011;68046;53.334;9.538;2023-05-14T11:38:00;4.15;;;3.40;;
78718;SDS011;68046;53.334;9.538;2023-05-14T11:40:35;8.02;;;3.22;;
78718;SDS011;68046;53.334;9.538;2023-05-14T11:43:05;6.90;;;3.85;;
78718;SDS011;68046;53.334;9.538;2023-05-14T11:45:36;4.72;;;3.35;;
78718;SDS011;68046;53.334;9.538;2023-05-14T11:48:12;4.03;;;3.08;;
78718;SDS011;68046;53.334;9.538;2023-05-14T11:50:43;4.68;;;3.00;;
78718;SDS011;68046;53.334;9.538;2023-05-14T11:53:15;3.70;;;2.88;;
78718;SDS011;68046;53.334;9.538;2023-05-14T11:55:49;5.72;;;3.22;;
78718;SDS011;68046;53.334;9.538;2023-05-14T11:58:20;6.93;;;3.60;;
78718;SDS011;68046;53.334;9.538;2023-05-14T12:03:20;6.22;;;2.97;;
78718;SDS011;68046;53.334;9.538;2023-05-14T12:05:55;6.57;;;3.28;;
78718;SDS011;68046;53.334;9.538;2023-05-14T12:08:25;5.90;;;3.33;;
78718;SDS011;68046;53.334;9.538;2023-05-14T12:10:59;3.92;;;3.00;;
78718;SDS011;68046;53.334;9.538;2023-05-14T12:13:30;5.72;;;2.97;;
78718;SDS011;68046;53.334;9.538;2023-05-14T12:18:31;7.65;;;3.08;;
78718;SDS011;68046;53.334;9.538;2023-05-14T12:23:33;4.60;;;3.13;;
78718;SDS011;68046;53.334;9.538;2023-05-14T12:26:07;6.03;;;3.25;;
78718;SDS011;68046;53.334;9.538;2023-05-14T12:28:37;4.60;;;3.10;;
78718;SDS011;68046;53.334;9.538;2023-05-14T12:31:10;6.00;;;3.60;;
78718;SDS011;68046;53.334;9.538;2023-05-14T12:33:43;6.68;;;2.75;;
78718;SDS011;68046;53.334;9.538;2023-05-14T12:36:49;5.78;;;2.90;;
78718;SDS011;68046;53.334;9.538;2023-05-14T12:39:38;4.22;;;3.00;;
78718;SDS011;68046;53.334;9.538;2023-05-14T12:45:20;6.75;;;3.08;;
78718;SDS011;68046;53.334;9.538;2023-05-14T12:48:09;4.35;;;3.10;;
78718;SDS011;68046;53.334;9.538;2023-05-14T12:50:41;5.22;;;3.03;;
78718;SDS011;68046;53.334;9.538;2023-05-14T12:53:48;5.60;;;3.45;;
78718;SDS011;68046;53.334;9.538;2023-05-14T12:56:27;5.10;;;2.80;;
78718;SDS011;68046;53.334;9.538;2023-05-14T12:59:07;6.38;;;3.40;;
78718;SDS011;68046;53.334;9.538;2023-05-14T13:02:05;4.30;;;2.95;;
78718;SDS011;68046;53.334;9.538;2023-05-14T13:04:44;5.03;;;3.15;;
78718;SDS011;68046;53.334;9.538;2023-05-14T13:07:40;3.50;;;3.00;;
78718;SDS011;68046;53.334;9.538;2023-05-14T13:14:07;5.90;;;3.22;;
78718;SDS011;68046;53.334;9.538;2023-05-14T13:16:37;4.78;;;2.78;;
78718;SDS011;68046;53.334;9.538;2023-05-14T13:19:07;8.10;;;3.13;;
78718;SDS011;68046;53.334;9.538;2023-05-14T13:21:37;5.30;;;3.15;;
78718;SDS011;68046;53.334;9.538;2023-05-14T13:24:07;6.93;;;3.00;;
78718;SDS011;68046;53.334;9.538;2023-05-14T13:26:37;4.45;;;3.03;;
78718;SDS011;68046;53.334;9.538;2023-05-14T13:29:09;4.82;;;3.42;;
78718;SDS011;68046;53.334;9.538;2023-05-14T13:31:42;4.00;;;2.90;;
78718;SDS011;68046;53.334;9.538;2023-05-14T13:34:12;4.28;;;3.00;;
78718;SDS011;68046;53.334;9.538;2023-05-14T13:36:43;4.80;;;3.53;;
78718;SDS011;68046;53.334;9.538;2023-05-14T13:39:15;6.55;;;3.33;;
78718;SDS011;68046;53.334;9.538;2023-05-14T13:41:48;3.50;;;2.67;;
78718;SDS011;68046;53.334;9.538;2023-05-14T13:46:51;8.27;;;3.53;;
78718;SDS011;68046;53.334;9.538;2023-05-14T13:49:21;7.18;;;3.30;;
78718;SDS011;68046;53.334;9.538;2023-05-14T13:51:51;4.70;;;3.10;;
78718;SDS011;68046;53.334;9.538;2023-05-14T13:54:21;4.47;;;2.92;;
78718;SDS011;68046;53.334;9.538;2023-05-14T13:56:51;6.15;;;3.03;;
78718;SDS011;68046;53.334;9.538;2023-05-14T13:59:23;7.38;;;3.15;;
78718;SDS011;68046;53.334;9.538;2023-05-14T14:01:53;4.32;;;3.40;;
78718;SDS011;68046;53.334;9.538;2023-05-14T14:04:23;5.38;;;3.17;;
78718;SDS011;68046;53.334;9.538;2023-05-14T14:06:54;4.75;;;2.90;;
78718;SDS011;68046;53.334;9.538;2023-05-14T14:09:24;6.28;;;3.08;;
78718;SDS011;68046;53.334;9.538;2023-05-14T14:11:54;4.32;;;2.70;;
78718;SDS011;68046;53.334;9.538;2023-05-14T14:14:26;3.85;;;2.75;;
78718;SDS011;68046;53.334;9.538;2023-05-14T14:16:56;4.05;;;3.22;;
78718;SDS011;68046;53.334;9.538;2023-05-14T14:19:26;4.72;;;3.17;;
78718;SDS011;68046;53.334;9.538;2023-05-14T14:21:56;4.40;;;2.83;;
78718;SDS011;68046;53.334;9.538;2023-05-14T14:24:26;5.05;;;3.40;;
78718;SDS011;68046;53.334;9.538;2023-05-14T14:26:56;6.18;;;3.17;;
78718;SDS011;68046;53.334;9.538;2023-05-14T14:29:30;5.50;;;3.30;;
78718;SDS011;68046;53.334;9.538;2023-05-14T14:32:01;5.32;;;3.47;;
78718;SDS011;68046;53.334;9.538;2023-05-14T14:34:30;3.80;;;2.80;;
78718;SDS011;68046;53.334;9.538;2023-05-14T14:37:00;5.57;;;2.92;;
78718;SDS011;68046;53.334;9.538;2023-05-14T14:39:30;6.13;;;3.22;;
78718;SDS011;68046;53.334;9.538;2023-05-14T14:42:00;11.93;;;3.30;;
78718;SDS011;68046;53.334;9.538;2023-05-14T14:44:33;4.60;;;3.28;;
78718;SDS011;68046;53.334;9.538;2023-05-14T14:47:03;7.72;;;3.20;;
78718;SDS011;68046;53.334;9.538;2023-05-14T14:49:33;5.35;;;3.00;;
78718;SDS011;68046;53.334;9.538;2023-05-14T14:52:03;7.70;;;3.60;;
78718;SDS011;68046;53.334;9.538;2023-05-14T14:54:33;5.00;;;3.03;;
78718;SDS011;68046;53.334;9.538;2023-05-14T14:57:03;3.60;;;2.97;;
78718;SDS011;68046;53.334;9.538;2023-05-14T14:59:36;5.53;;;3.10;;
78718;SDS011;68046;53.334;9.538;2023-05-14T15:02:07;4.97;;;2.85;;
78718;SDS011;68046;53.334;9.538;2023-05-14T15:04:40;4.30;;;2.83;;
78718;SDS011;68046;53.334;9.538;2023-05-14T15:07:10;4.82;;;2.95;;
78718;SDS011;68046;53.334;9.538;2023-05-14T15:09:41;3.17;;;2.67;;
78718;SDS011;68046;53.334;9.538;2023-05-14T15:12:11;6.03;;;3.13;;
78718;SDS011;68046;53.334;9.538;2023-05-14T15:14:45;3.75;;;2.72;;
78718;SDS011;68046;53.334;9.538;2023-05-14T15:17:15;6.97;;;2.80;;
78718;SDS011;68046;53.334;9.538;2023-05-14T15:19:45;5.75;;;2.97;;
78718;SDS011;68046;53.334;9.538;2023-05-14T15:22:14;3.38;;;2.55;;
78718;SDS011;68046;53.334;9.538;2023-05-14T15:24:44;4.43;;;2.63;;
78718;SDS011;68046;53.334;9.538;2023-05-14T15:27:14;4.63;;;2.97;;
78718;SDS011;68046;53.334;9.538;2023-05-14T15:29:47;4.53;;;2.83;;
78718;SDS011;68046;53.334;9.538;2023-05-14T15:32:17;3.63;;;2.50;;
78718;SDS011;68046;53.334;9.538;2023-05-14T15:34:47;3.30;;;2.50;;
78718;SDS011;68046;53.334;9.538;2023-05-14T15:37:17;3.65;;;2.50;;
78718;SDS011;68046;53.334;9.538;2023-05-14T15:39:47;3.13;;;2.33;;
78718;SDS011;68046;53.334;9.538;2023-05-14T15:42:17;3.33;;;2.65;;
78718;SDS011;68046;53.334;9.538;2023-05-14T15:44:50;3.45;;;2.67;;
78718;SDS011;68046;53.334;9.538;2023-05-14T15:47:20;4.50;;;2.45;;
78718;SDS011;68046;53.334;9.538;2023-05-14T19:38:53;4.18;;;2.70;;
78718;SDS011;68046;53.334;9.538;2023-05-14T19:41:23;5.38;;;3.03;;
78718;SDS011;68046;53.334;9.538;2023-05-14T19:43:53;6.32;;;3.13;;
78718;SDS011;68046;53.334;9.538;2023-05-14T19:46:23;8.70;;;3.13;;
78718;SDS011;68046;53.334;9.538;2023-05-14T19:48:53;5.90;;;3.20;;
78718;SDS011;68046;53.334;9.538;2023-05-14T19:51:23;5.20;;;2.75;;
78718;SDS011;68046;53.334;9.538;2023-05-14T19:53:57;3.67;;;2.88;;
78718;SDS011;68046;53.334;9.538;2023-05-14T19:56:27;5.57;;;3.00;;
78718;SDS011;68046;53.334;9.538;2023-05-14T19:58:57;3.90;;;2.97;;
78718;SDS011;68046;53.334;9.538;2023-05-14T20:01:27;4.32;;;2.95;;
78718;SDS011;68046;53.334;9.538;2023-05-14T20:03:58;5.60;;;3.08;;
78718;SDS011;68046;53.334;9.538;2023-05-14T20:06:28;6.30;;;3.35;;
78718;SDS011;68046;53.334;9.538;2023-05-14T20:09:02;5.97;;;4.00;;
78718;SDS011;68046;53.334;9.538;2023-05-14T20:11:32;6.63;;;3.80;;
78718;SDS011;68046;53.334;9.538;2023-05-14T20:14:03;4.97;;;3.20;;